sensor_id;sensor_type;location;lat;lon;timestamp;P1;durP1;ratioP1;P2;durP2;ratioP2
66856;SDS011;53766;50.280;19.160;2024-03-08T00:00:13;13.18;;;7.90;;
66856;SDS011;53766;50.280;19.160;2024-03-08T00:03:05;13.00;;;8.40;;
66856;SDS011;53766;50.280;19.160;2024-03-08T00:05:33;12.77;;;7.95;;
66856;SDS011;53766;50.280;19.160;2024-03-08T00:08:00;14.18;;;8.75;;
66856;SDS011;53766;50.280;19.160;2024-03-08T00:10:28;12.05;;;8.13;;
66856;SDS011;53766;50.280;19.160;2024-03-08T00:12:56;11.80;;;7.57;;
66856;SDS011;53766;50.280;19.160;2024-03-08T00:15:25;11.85;;;8.13;;
66856;SDS011;53766;50.280;19.160;2024-03-08T00:17:52;14.63;;;8.77;;
66856;SDS011;53766;50.280;19.160;2024-03-08T00:20:21;13.65;;;8.65;;
66856;SDS011;53766;50.280;19.160;2024-03-08T00:22:48;14.00;;;8.15;;
66856;SDS011;53766;50.280;19.160;2024-03-08T00:25:16;12.70;;;8.65;;
66856;SDS011;53766;50.280;19.160;2024-03-08T00:27:44;13.93;;;8.10;;
66856;SDS011;53766;50.280;19.160;2024-03-08T00:30:12;12.48;;;8.43;;
66856;SDS011;53766;50.280;19.160;2024-03-08T00:32:42;14.85;;;8.48;;
66856;SDS011;53766;50.280;19.160;2024-03-08T00:35:10;13.75;;;8.80;;
66856;SDS011;53766;50.280;19.160;2024-03-08T00:37:40;12.55;;;8.65;;
66856;SDS011;53766;50.280;19.160;2024-03-08T00:40:09;12.85;;;8.80;;
66856;SDS011;53766;50.280;19.160;2024-03-08T00:42:38;14.02;;;8.82;;
66856;SDS011;53766;50.280;19.160;2024-03-08T00:45:07;12.63;;;8.57;;
66856;SDS011;53766;50.280;19.160;2024-03-08T00:47:35;12.25;;;8.52;;
66856;SDS011;53766;50.280;19.160;2024-03-08T00:50:03;14.80;;;8.38;;
66856;SDS011;53766;50.280;19.160;2024-03-08T00:52:31;16.17;;;8.93;;
66856;SDS011;53766;50.280;19.160;2024-03-08T00:54:59;13.35;;;8.70;;
66856;SDS011;53766;50.280;19.160;2024-03-08T00:57:26;12.75;;;8.20;;
66856;SDS011;53766;50.280;19.160;2024-03-08T00:59:55;14.43;;;8.63;;
66856;SDS011;53766;50.280;19.160;2024-03-08T01:02:23;13.10;;;8.55;;
66856;SDS011;53766;50.280;19.160;2024-03-08T01:04:51;13.23;;;8.75;;
66856;SDS011;53766;50.280;19.160;2024-03-08T01:07:18;11.10;;;7.80;;
66856;SDS011;53766;50.280;19.160;2024-03-08T01:09:46;12.93;;;8.38;;
66856;SDS011;53766;50.280;19.160;2024-03-08T01:12:13;12.65;;;8.60;;
66856;SDS011;53766;50.280;19.160;2024-03-08T01:14:42;14.25;;;9.10;;
66856;SDS011;53766;50.280;19.160;2024-03-08T01:17:10;12.93;;;8.65;;
66856;SDS011;53766;50.280;19.160;2024-03-08T01:19:37;14.15;;;8.65;;
66856;SDS011;53766;50.280;19.160;2024-03-08T01:22:05;13.48;;;8.48;;
66856;SDS011;53766;50.280;19.160;2024-03-08T01:24:33;13.57;;;8.70;;
66856;SDS011;53766;50.280;19.160;2024-03-08T01:27:02;12.35;;;8.18;;
66856;SDS011;53766;50.280;19.160;2024-03-08T01:29:30;13.73;;;8.63;;
66856;SDS011;53766;50.280;19.160;2024-03-08T01:31:57;14.52;;;9.18;;
66856;SDS011;53766;50.280;19.160;2024-03-08T01:34:27;14.52;;;9.25;;
66856;SDS011;53766;50.280;19.160;2024-03-08T01:36:55;12.23;;;8.40;;
66856;SDS011;53766;50.280;19.160;2024-03-08T01:39:23;13.38;;;9.07;;
66856;SDS011;53766;50.280;19.160;2024-03-08T01:41:51;13.00;;;8.65;;
66856;SDS011;53766;50.280;19.160;2024-03-08T01:44:19;12.23;;;8.52;;
66856;SDS011;53766;50.280;19.160;2024-03-08T01:46:47;13.45;;;8.57;;
66856;SDS011;53766;50.280;19.160;2024-03-08T01:49:17;13.93;;;8.82;;
66856;SDS011;53766;50.280;19.160;2024-03-08T01:51:48;14.48;;;9.15;;
66856;SDS011;53766;50.280;19.160;2024-03-08T01:54:17;13.98;;;8.85;;
66856;SDS011;53766;50.280;19.160;2024-03-08T01:56:47;12.60;;;8.60;;
66856;SDS011;53766;50.280;19.160;2024-03-08T01:59:15;13.07;;;8.85;;
66856;SDS011;53766;50.280;19.160;2024-03-08T02:01:44;13.65;;;8.77;;
66856;SDS011;53766;50.280;19.160;2024-03-08T02:04:12;14.32;;;8.88;;
66856;SDS011;53766;50.280;19.160;2024-03-08T02:06:40;12.70;;;8.45;;
66856;SDS011;53766;50.280;19.160;2024-03-08T02:09:08;14.48;;;8.68;;
66856;SDS011;53766;50.280;19.160;2024-03-08T02:11:37;15.60;;;9.45;;
66856;SDS011;53766;50.280;19.160;2024-03-08T02:14:05;13.20;;;9.25;;
66856;SDS011;53766;50.280;19.160;2024-03-08T02:16:34;11.93;;;8.45;;
66856;SDS011;53766;50.280;19.160;2024-03-08T02:19:02;14.93;;;8.68;;
66856;SDS011;53766;50.280;19.160;2024-03-08T02:21:30;12.55;;;8.77;;
66856;SDS011;53766;50.280;19.160;2024-03-08T02:23:58;13.45;;;8.70;;
66856;SDS011;53766;50.280;19.160;2024-03-08T02:26:26;11.85;;;8.35;;
66856;SDS011;53766;50.280;19.160;2024-03-08T02:28:54;12.93;;;8.13;;
66856;SDS011;53766;50.280;19.160;2024-03-08T02:31:22;13.70;;;8.48;;
66856;SDS011;53766;50.280;19.160;2024-03-08T02:33:50;13.73;;;8.88;;
66856;SDS011;53766;50.280;19.160;2024-03-08T02:36:18;14.68;;;8.90;;
66856;SDS011;53766;50.280;19.160;2024-03-08T02:38:46;13.27;;;8.32;;
66856;SDS011;53766;50.280;19.160;2024-03-08T02:41:14;13.07;;;8.55;;
66856;SDS011;53766;50.280;19.160;2024-03-08T02:43:41;13.15;;;8.32;;
66856;SDS011;53766;50.280;19.160;2024-03-08T02:46:09;12.23;;;8.55;;
66856;SDS011;53766;50.280;19.160;2024-03-08T02:48:37;14.57;;;8.85;;
66856;SDS011;53766;50.280;19.160;2024-03-08T02:51:05;14.13;;;8.80;;
66856;SDS011;53766;50.280;19.160;2024-03-08T02:53:33;12.43;;;8.73;;
66856;SDS011;53766;50.280;19.160;2024-03-08T02:56:02;14.40;;;8.63;;
66856;SDS011;53766;50.280;19.160;2024-03-08T02:58:30;13.00;;;8.32;;
66856;SDS011;53766;50.280;19.160;2024-03-08T03:00:57;14.38;;;9.13;;
66856;SDS011;53766;50.280;19.160;2024-03-08T03:03:25;14.57;;;8.70;;
66856;SDS011;53766;50.280;19.160;2024-03-08T03:05:54;12.70;;;7.85;;
66856;SDS011;53766;50.280;19.160;2024-03-08T03:08:23;15.15;;;9.30;;
66856;SDS011;53766;50.280;19.160;2024-03-08T03:10:50;13.40;;;8.60;;
66856;SDS011;53766;50.280;19.160;2024-03-08T03:13:19;12.02;;;8.10;;
66856;SDS011;53766;50.280;19.160;2024-03-08T03:15:46;12.45;;;8.88;;
66856;SDS011;53766;50.280;19.160;2024-03-08T03:18:14;12.13;;;8.25;;
66856;SDS011;53766;50.280;19.160;2024-03-08T03:20:42;15.20;;;8.73;;
66856;SDS011;53766;50.280;19.160;2024-03-08T03:23:11;12.98;;;8.60;;
66856;SDS011;53766;50.280;19.160;2024-03-08T03:25:42;14.18;;;8.88;;
66856;SDS011;53766;50.280;19.160;2024-03-08T03:28:11;12.98;;;8.65;;
66856;SDS011;53766;50.280;19.160;2024-03-08T03:30:42;13.85;;;8.95;;
66856;SDS011;53766;50.280;19.160;2024-03-08T03:33:09;13.43;;;8.55;;
66856;SDS011;53766;50.280;19.160;2024-03-08T03:35:39;13.73;;;8.98;;
66856;SDS011;53766;50.280;19.160;2024-03-08T03:38:08;12.57;;;8.70;;
66856;SDS011;53766;50.280;19.160;2024-03-08T03:40:38;12.82;;;8.50;;
66856;SDS011;53766;50.280;19.160;2024-03-08T03:43:07;15.25;;;8.68;;
66856;SDS011;53766;50.280;19.160;2024-03-08T03:45:38;13.38;;;8.13;;
66856;SDS011;53766;50.280;19.160;2024-03-08T03:48:07;12.13;;;8.35;;
66856;SDS011;53766;50.280;19.160;2024-03-08T03:50:38;12.90;;;8.63;;
66856;SDS011;53766;50.280;19.160;2024-03-08T03:53:07;12.93;;;8.63;;
66856;SDS011;53766;50.280;19.160;2024-03-08T03:55:37;11.70;;;8.20;;
66856;SDS011;53766;50.280;19.160;2024-03-08T03:58:08;13.00;;;8.65;;
66856;SDS011;53766;50.280;19.160;2024-03-08T04:00:38;12.70;;;8.23;;
66856;SDS011;53766;50.280;19.160;2024-03-08T04:03:06;12.07;;;8.50;;
66856;SDS011;53766;50.280;19.160;2024-03-08T04:05:35;12.98;;;8.25;;
66856;SDS011;53766;50.280;19.160;2024-03-08T04:08:03;13.75;;;9.05;;
66856;SDS011;53766;50.280;19.160;2024-03-08T04:10:30;12.18;;;8.85;;
66856;SDS011;53766;50.280;19.160;2024-03-08T04:13:06;15.02;;;9.00;;
66856;SDS011;53766;50.280;19.160;2024-03-08T04:15:34;12.27;;;8.13;;
66856;SDS011;53766;50.280;19.160;2024-03-08T04:18:02;11.43;;;8.35;;
66856;SDS011;53766;50.280;19.160;2024-03-08T04:20:29;11.68;;;8.18;;
66856;SDS011;53766;50.280;19.160;2024-03-08T04:22:57;12.85;;;8.63;;
66856;SDS011;53766;50.280;19.160;2024-03-08T04:25:25;10.80;;;7.95;;
66856;SDS011;53766;50.280;19.160;2024-03-08T04:27:54;12.55;;;8.18;;
66856;SDS011;53766;50.280;19.160;2024-03-08T04:30:21;13.68;;;8.70;;
66856;SDS011;53766;50.280;19.160;2024-03-08T04:32:49;10.88;;;8.07;;
66856;SDS011;53766;50.280;19.160;2024-03-08T04:35:17;12.73;;;8.50;;
66856;SDS011;53766;50.280;19.160;2024-03-08T04:37:44;12.70;;;8.60;;
66856;SDS011;53766;50.280;19.160;2024-03-08T04:40:12;13.77;;;7.78;;
66856;SDS011;53766;50.280;19.160;2024-03-08T04:42:39;14.40;;;8.27;;
66856;SDS011;53766;50.280;19.160;2024-03-08T04:45:10;11.88;;;8.23;;
66856;SDS011;53766;50.280;19.160;2024-03-08T04:47:41;12.13;;;8.35;;
66856;SDS011;53766;50.280;19.160;2024-03-08T04:50:09;11.68;;;8.30;;
66856;SDS011;53766;50.280;19.160;2024-03-08T04:52:37;12.02;;;8.20;;
66856;SDS011;53766;50.280;19.160;2024-03-08T04:55:04;12.25;;;8.68;;
66856;SDS011;53766;50.280;19.160;2024-03-08T04:57:33;13.90;;;8.73;;
66856;SDS011;53766;50.280;19.160;2024-03-08T05:00:02;11.95;;;8.00;;
66856;SDS011;53766;50.280;19.160;2024-03-08T05:02:35;12.82;;;8.20;;
66856;SDS011;53766;50.280;19.160;2024-03-08T05:05:02;11.35;;;8.15;;
66856;SDS011;53766;50.280;19.160;2024-03-08T05:07:30;16.52;;;9.20;;
66856;SDS011;53766;50.280;19.160;2024-03-08T05:09:58;16.88;;;8.95;;
66856;SDS011;53766;50.280;19.160;2024-03-08T05:12:26;13.75;;;8.50;;
66856;SDS011;53766;50.280;19.160;2024-03-08T05:14:53;12.38;;;9.02;;
66856;SDS011;53766;50.280;19.160;2024-03-08T05:17:22;12.57;;;8.60;;
66856;SDS011;53766;50.280;19.160;2024-03-08T05:19:51;12.07;;;8.38;;
66856;SDS011;53766;50.280;19.160;2024-03-08T05:22:19;13.32;;;8.20;;
66856;SDS011;53766;50.280;19.160;2024-03-08T05:24:46;11.25;;;7.72;;
66856;SDS011;53766;50.280;19.160;2024-03-08T05:27:14;14.50;;;8.55;;
66856;SDS011;53766;50.280;19.160;2024-03-08T05:29:42;14.27;;;8.30;;
66856;SDS011;53766;50.280;19.160;2024-03-08T05:32:09;11.30;;;8.00;;
66856;SDS011;53766;50.280;19.160;2024-03-08T05:34:37;14.98;;;8.38;;
66856;SDS011;53766;50.280;19.160;2024-03-08T05:37:05;12.70;;;8.25;;
66856;SDS011;53766;50.280;19.160;2024-03-08T05:39:34;14.13;;;8.65;;
66856;SDS011;53766;50.280;19.160;2024-03-08T05:42:01;14.88;;;8.13;;
66856;SDS011;53766;50.280;19.160;2024-03-08T05:44:29;14.85;;;8.65;;
66856;SDS011;53766;50.280;19.160;2024-03-08T05:46:58;13.85;;;8.90;;
66856;SDS011;53766;50.280;19.160;2024-03-08T05:49:25;16.40;;;8.88;;
66856;SDS011;53766;50.280;19.160;2024-03-08T05:51:53;15.98;;;9.00;;
66856;SDS011;53766;50.280;19.160;2024-03-08T05:54:21;20.02;;;8.50;;
66856;SDS011;53766;50.280;19.160;2024-03-08T05:56:52;16.25;;;8.02;;
66856;SDS011;53766;50.280;19.160;2024-03-08T05:59:21;15.75;;;8.88;;
66856;SDS011;53766;50.280;19.160;2024-03-08T06:01:50;13.18;;;8.00;;
66856;SDS011;53766;50.280;19.160;2024-03-08T06:04:18;15.95;;;8.85;;
66856;SDS011;53766;50.280;19.160;2024-03-08T06:06:46;15.05;;;8.10;;
66856;SDS011;53766;50.280;19.160;2024-03-08T06:09:18;12.98;;;8.30;;
66856;SDS011;53766;50.280;19.160;2024-03-08T06:11:52;16.38;;;8.98;;
66856;SDS011;53766;50.280;19.160;2024-03-08T06:14:21;18.80;;;9.63;;
66856;SDS011;53766;50.280;19.160;2024-03-08T06:16:49;16.27;;;9.85;;
66856;SDS011;53766;50.280;19.160;2024-03-08T06:19:19;15.10;;;9.45;;
66856;SDS011;53766;50.280;19.160;2024-03-08T06:21:47;15.70;;;9.43;;
66856;SDS011;53766;50.280;19.160;2024-03-08T06:24:14;17.02;;;9.95;;
66856;SDS011;53766;50.280;19.160;2024-03-08T06:26:43;17.10;;;9.85;;
66856;SDS011;53766;50.280;19.160;2024-03-08T06:29:10;16.77;;;9.65;;
66856;SDS011;53766;50.280;19.160;2024-03-08T06:31:38;14.05;;;9.20;;
66856;SDS011;53766;50.280;19.160;2024-03-08T06:34:06;16.42;;;10.00;;
66856;SDS011;53766;50.280;19.160;2024-03-08T06:36:38;15.35;;;9.52;;
66856;SDS011;53766;50.280;19.160;2024-03-08T06:39:06;14.52;;;9.18;;
66856;SDS011;53766;50.280;19.160;2024-03-08T06:41:37;15.30;;;9.20;;
66856;SDS011;53766;50.280;19.160;2024-03-08T06:44:05;13.57;;;9.05;;
66856;SDS011;53766;50.280;19.160;2024-03-08T06:46:35;17.70;;;9.35;;
66856;SDS011;53766;50.280;19.160;2024-03-08T06:49:03;13.43;;;8.95;;
66856;SDS011;53766;50.280;19.160;2024-03-08T06:51:30;15.30;;;9.63;;
66856;SDS011;53766;50.280;19.160;2024-03-08T06:53:59;16.05;;;9.35;;
66856;SDS011;53766;50.280;19.160;2024-03-08T06:56:27;13.98;;;9.45;;
66856;SDS011;53766;50.280;19.160;2024-03-08T06:58:55;11.65;;;8.40;;
66856;SDS011;53766;50.280;19.160;2024-03-08T07:01:22;13.45;;;8.20;;
66856;SDS011;53766;50.280;19.160;2024-03-08T07:03:50;12.73;;;9.10;;
66856;SDS011;53766;50.280;19.160;2024-03-08T07:06:20;11.65;;;8.85;;
66856;SDS011;53766;50.280;19.160;2024-03-08T07:08:48;11.23;;;8.40;;
66856;SDS011;53766;50.280;19.160;2024-03-08T07:11:16;14.65;;;8.60;;
66856;SDS011;53766;50.280;19.160;2024-03-08T07:13:46;16.63;;;8.38;;
66856;SDS011;53766;50.280;19.160;2024-03-08T07:16:13;12.30;;;8.80;;
66856;SDS011;53766;50.280;19.160;2024-03-08T07:18:41;13.15;;;8.98;;
66856;SDS011;53766;50.280;19.160;2024-03-08T07:21:11;12.57;;;8.55;;
66856;SDS011;53766;50.280;19.160;2024-03-08T07:23:39;12.65;;;8.40;;
66856;SDS011;53766;50.280;19.160;2024-03-08T07:26:25;13.90;;;8.43;;
66856;SDS011;53766;50.280;19.160;2024-03-08T07:28:53;14.45;;;9.32;;
66856;SDS011;53766;50.280;19.160;2024-03-08T07:31:24;12.70;;;8.27;;
66856;SDS011;53766;50.280;19.160;2024-03-08T07:34:10;16.02;;;9.20;;
66856;SDS011;53766;50.280;19.160;2024-03-08T07:36:38;15.20;;;8.73;;
66856;SDS011;53766;50.280;19.160;2024-03-08T07:39:05;12.40;;;8.23;;
66856;SDS011;53766;50.280;19.160;2024-03-08T07:41:39;12.88;;;7.90;;
66856;SDS011;53766;50.280;19.160;2024-03-08T07:44:09;11.95;;;8.55;;
66856;SDS011;53766;50.280;19.160;2024-03-08T07:46:37;12.05;;;8.27;;
66856;SDS011;53766;50.280;19.160;2024-03-08T07:49:05;13.70;;;7.80;;
66856;SDS011;53766;50.280;19.160;2024-03-08T07:51:33;14.35;;;8.95;;
66856;SDS011;53766;50.280;19.160;2024-03-08T07:54:02;12.18;;;8.30;;
66856;SDS011;53766;50.280;19.160;2024-03-08T07:56:32;12.60;;;8.35;;
66856;SDS011;53766;50.280;19.160;2024-03-08T07:58:59;12.10;;;8.05;;
66856;SDS011;53766;50.280;19.160;2024-03-08T08:01:27;10.35;;;7.93;;
66856;SDS011;53766;50.280;19.160;2024-03-08T08:03:55;11.43;;;8.38;;
66856;SDS011;53766;50.280;19.160;2024-03-08T08:06:24;11.90;;;8.18;;
66856;SDS011;53766;50.280;19.160;2024-03-08T08:08:52;14.57;;;8.75;;
66856;SDS011;53766;50.280;19.160;2024-03-08T08:11:20;11.48;;;7.72;;
66856;SDS011;53766;50.280;19.160;2024-03-08T08:13:48;13.18;;;8.00;;
66856;SDS011;53766;50.280;19.160;2024-03-08T08:16:16;11.60;;;8.57;;
66856;SDS011;53766;50.280;19.160;2024-03-08T08:18:43;11.48;;;8.52;;
66856;SDS011;53766;50.280;19.160;2024-03-08T08:21:13;12.40;;;7.95;;
66856;SDS011;53766;50.280;19.160;2024-03-08T08:23:41;13.10;;;8.30;;
66856;SDS011;53766;50.280;19.160;2024-03-08T08:26:09;13.70;;;8.15;;
66856;SDS011;53766;50.280;19.160;2024-03-08T08:28:38;10.95;;;7.88;;
66856;SDS011;53766;50.280;19.160;2024-03-08T08:31:09;10.95;;;7.97;;
66856;SDS011;53766;50.280;19.160;2024-03-08T08:33:36;13.35;;;8.20;;
66856;SDS011;53766;50.280;19.160;2024-03-08T08:36:04;11.30;;;7.93;;
66856;SDS011;53766;50.280;19.160;2024-03-08T08:38:32;11.25;;;8.00;;
66856;SDS011;53766;50.280;19.160;2024-03-08T08:41:00;15.52;;;8.38;;
66856;SDS011;53766;50.280;19.160;2024-03-08T08:43:29;11.30;;;7.50;;
66856;SDS011;53766;50.280;19.160;2024-03-08T08:45:57;12.38;;;8.43;;
66856;SDS011;53766;50.280;19.160;2024-03-08T08:48:24;11.40;;;7.88;;
66856;SDS011;53766;50.280;19.160;2024-03-08T08:50:52;11.23;;;8.05;;
66856;SDS011;53766;50.280;19.160;2024-03-08T08:53:20;11.85;;;8.60;;
66856;SDS011;53766;50.280;19.160;2024-03-08T08:55:48;11.15;;;8.07;;
66856;SDS011;53766;50.280;19.160;2024-03-08T08:58:15;12.50;;;8.38;;
66856;SDS011;53766;50.280;19.160;2024-03-08T09:00:43;12.02;;;8.20;;
66856;SDS011;53766;50.280;19.160;2024-03-08T09:03:11;12.10;;;8.65;;
66856;SDS011;53766;50.280;19.160;2024-03-08T09:05:39;11.50;;;7.57;;
66856;SDS011;53766;50.280;19.160;2024-03-08T09:08:12;11.23;;;7.90;;
66856;SDS011;53766;50.280;19.160;2024-03-08T09:10:40;9.77;;;7.13;;
66856;SDS011;53766;50.280;19.160;2024-03-08T09:13:08;10.23;;;7.38;;
66856;SDS011;53766;50.280;19.160;2024-03-08T09:15:44;11.20;;;8.35;;
66856;SDS011;53766;50.280;19.160;2024-03-08T09:18:12;12.02;;;8.05;;
66856;SDS011;53766;50.280;19.160;2024-03-08T09:20:40;12.05;;;8.00;;
66856;SDS011;53766;50.280;19.160;2024-03-08T09:23:08;11.35;;;8.18;;
66856;SDS011;53766;50.280;19.160;2024-03-08T09:25:36;9.98;;;7.70;;
66856;SDS011;53766;50.280;19.160;2024-03-08T09:28:03;10.05;;;7.53;;
66856;SDS011;53766;50.280;19.160;2024-03-08T09:30:33;10.90;;;7.75;;
66856;SDS011;53766;50.280;19.160;2024-03-08T09:33:02;10.07;;;7.47;;
66856;SDS011;53766;50.280;19.160;2024-03-08T09:35:30;19.42;;;8.48;;
66856;SDS011;53766;50.280;19.160;2024-03-08T09:37:58;11.10;;;8.15;;
66856;SDS011;53766;50.280;19.160;2024-03-08T09:40:26;11.02;;;7.78;;
66856;SDS011;53766;50.280;19.160;2024-03-08T09:42:54;10.20;;;7.38;;
66856;SDS011;53766;50.280;19.160;2024-03-08T09:45:23;10.15;;;7.80;;
66856;SDS011;53766;50.280;19.160;2024-03-08T09:47:52;11.25;;;7.80;;
66856;SDS011;53766;50.280;19.160;2024-03-08T09:50:21;12.63;;;7.72;;
66856;SDS011;53766;50.280;19.160;2024-03-08T09:52:49;10.00;;;7.07;;
66856;SDS011;53766;50.280;19.160;2024-03-08T09:55:18;10.25;;;7.40;;
66856;SDS011;53766;50.280;19.160;2024-03-08T09:57:49;11.05;;;8.23;;
66856;SDS011;53766;50.280;19.160;2024-03-08T10:00:37;10.70;;;7.85;;
66856;SDS011;53766;50.280;19.160;2024-03-08T10:03:04;12.40;;;8.25;;
66856;SDS011;53766;50.280;19.160;2024-03-08T10:05:32;11.02;;;7.80;;
66856;SDS011;53766;50.280;19.160;2024-03-08T10:08:00;10.45;;;7.70;;
66856;SDS011;53766;50.280;19.160;2024-03-08T10:10:28;10.38;;;7.68;;
66856;SDS011;53766;50.280;19.160;2024-03-08T10:12:55;9.68;;;7.45;;
66856;SDS011;53766;50.280;19.160;2024-03-08T10:15:23;9.60;;;7.25;;
66856;SDS011;53766;50.280;19.160;2024-03-08T10:17:55;10.57;;;8.13;;
66856;SDS011;53766;50.280;19.160;2024-03-08T10:20:24;11.73;;;8.15;;
66856;SDS011;53766;50.280;19.160;2024-03-08T10:22:51;10.52;;;7.78;;
66856;SDS011;53766;50.280;19.160;2024-03-08T10:25:36;10.07;;;7.75;;
66856;SDS011;53766;50.280;19.160;2024-03-08T10:28:04;10.85;;;7.38;;
66856;SDS011;53766;50.280;19.160;2024-03-08T10:30:32;10.30;;;7.25;;
66856;SDS011;53766;50.280;19.160;2024-03-08T10:32:59;11.73;;;8.07;;
66856;SDS011;53766;50.280;19.160;2024-03-08T10:35:28;9.60;;;7.15;;
66856;SDS011;53766;50.280;19.160;2024-03-08T10:37:56;10.32;;;6.93;;
66856;SDS011;53766;50.280;19.160;2024-03-08T10:40:27;10.20;;;7.22;;
66856;SDS011;53766;50.280;19.160;2024-03-08T10:42:56;10.48;;;7.78;;
66856;SDS011;53766;50.280;19.160;2024-03-08T10:45:36;10.50;;;7.55;;
66856;SDS011;53766;50.280;19.160;2024-03-08T10:50:38;9.15;;;7.00;;
66856;SDS011;53766;50.280;19.160;2024-03-08T10:53:06;10.45;;;7.97;;
66856;SDS011;53766;50.280;19.160;2024-03-08T10:55:34;11.73;;;7.68;;
66856;SDS011;53766;50.280;19.160;2024-03-08T10:58:06;12.05;;;7.88;;
66856;SDS011;53766;50.280;19.160;2024-03-08T11:00:35;10.20;;;7.63;;
66856;SDS011;53766;50.280;19.160;2024-03-08T11:03:04;9.98;;;7.10;;
66856;SDS011;53766;50.280;19.160;2024-03-08T11:08:02;10.10;;;7.20;;
66856;SDS011;53766;50.280;19.160;2024-03-08T11:10:31;9.77;;;7.47;;
66856;SDS011;53766;50.280;19.160;2024-03-08T11:12:59;9.93;;;7.35;;
66856;SDS011;53766;50.280;19.160;2024-03-08T11:15:29;9.63;;;7.00;;
66856;SDS011;53766;50.280;19.160;2024-03-08T11:17:58;9.68;;;7.18;;
66856;SDS011;53766;50.280;19.160;2024-03-08T11:20:26;8.88;;;6.95;;
66856;SDS011;53766;50.280;19.160;2024-03-08T11:22:55;8.93;;;7.18;;
66856;SDS011;53766;50.280;19.160;2024-03-08T11:30:38;8.68;;;7.05;;
66856;SDS011;53766;50.280;19.160;2024-03-08T11:33:10;10.95;;;7.40;;
66856;SDS011;53766;50.280;19.160;2024-03-08T11:35:39;11.38;;;7.50;;
66856;SDS011;53766;50.280;19.160;2024-03-08T11:38:09;10.18;;;7.50;;
66856;SDS011;53766;50.280;19.160;2024-03-08T11:40:37;11.07;;;7.38;;
66856;SDS011;53766;50.280;19.160;2024-03-08T11:43:07;9.90;;;7.28;;
66856;SDS011;53766;50.280;19.160;2024-03-08T11:45:35;9.00;;;7.32;;
66856;SDS011;53766;50.280;19.160;2024-03-08T11:48:03;10.23;;;6.80;;
66856;SDS011;53766;50.280;19.160;2024-03-08T11:50:32;10.18;;;7.53;;
66856;SDS011;53766;50.280;19.160;2024-03-08T11:53:00;9.88;;;7.10;;
66856;SDS011;53766;50.280;19.160;2024-03-08T11:55:31;9.60;;;7.20;;
66856;SDS011;53766;50.280;19.160;2024-03-08T11:58:02;10.05;;;7.13;;
66856;SDS011;53766;50.280;19.160;2024-03-08T12:00:31;8.75;;;7.18;;
66856;SDS011;53766;50.280;19.160;2024-03-08T12:03:06;9.43;;;7.20;;
66856;SDS011;53766;50.280;19.160;2024-03-08T12:05:39;9.50;;;7.28;;
66856;SDS011;53766;50.280;19.160;2024-03-08T12:08:07;10.23;;;6.88;;
66856;SDS011;53766;50.280;19.160;2024-03-08T12:10:36;10.07;;;7.22;;
66856;SDS011;53766;50.280;19.160;2024-03-08T12:13:04;10.73;;;7.57;;
66856;SDS011;53766;50.280;19.160;2024-03-08T12:15:40;10.38;;;7.43;;
66856;SDS011;53766;50.280;19.160;2024-03-08T12:18:08;8.50;;;6.78;;
66856;SDS011;53766;50.280;19.160;2024-03-08T12:20:37;9.05;;;7.35;;
66856;SDS011;53766;50.280;19.160;2024-03-08T12:23:06;8.13;;;6.80;;
66856;SDS011;53766;50.280;19.160;2024-03-08T12:25:41;8.48;;;6.50;;
66856;SDS011;53766;50.280;19.160;2024-03-08T12:28:09;9.90;;;7.03;;
66856;SDS011;53766;50.280;19.160;2024-03-08T12:30:45;9.10;;;6.85;;
66856;SDS011;53766;50.280;19.160;2024-03-08T12:33:15;9.88;;;6.95;;
66856;SDS011;53766;50.280;19.160;2024-03-08T12:35:53;10.10;;;7.68;;
66856;SDS011;53766;50.280;19.160;2024-03-08T12:38:23;8.80;;;6.72;;
66856;SDS011;53766;50.280;19.160;2024-03-08T12:40:55;10.65;;;7.20;;
66856;SDS011;53766;50.280;19.160;2024-03-08T12:43:24;9.05;;;7.07;;
66856;SDS011;53766;50.280;19.160;2024-03-08T12:45:52;9.70;;;6.65;;
66856;SDS011;53766;50.280;19.160;2024-03-08T12:48:19;9.45;;;7.60;;
66856;SDS011;53766;50.280;19.160;2024-03-08T12:50:48;8.98;;;7.40;;
66856;SDS011;53766;50.280;19.160;2024-03-08T12:53:18;10.23;;;7.00;;
66856;SDS011;53766;50.280;19.160;2024-03-08T12:55:45;9.40;;;7.28;;
66856;SDS011;53766;50.280;19.160;2024-03-08T12:58:13;8.95;;;6.82;;
66856;SDS011;53766;50.280;19.160;2024-03-08T13:00:40;9.35;;;6.95;;
66856;SDS011;53766;50.280;19.160;2024-03-08T13:03:10;9.52;;;7.25;;
66856;SDS011;53766;50.280;19.160;2024-03-08T13:05:38;9.45;;;7.25;;
66856;SDS011;53766;50.280;19.160;2024-03-08T13:08:07;9.60;;;6.88;;
66856;SDS011;53766;50.280;19.160;2024-03-08T13:10:43;8.75;;;6.78;;
66856;SDS011;53766;50.280;19.160;2024-03-08T13:13:11;9.55;;;6.90;;
66856;SDS011;53766;50.280;19.160;2024-03-08T13:15:40;8.60;;;6.75;;
66856;SDS011;53766;50.280;19.160;2024-03-08T13:18:08;8.93;;;6.75;;
66856;SDS011;53766;50.280;19.160;2024-03-08T13:20:36;8.45;;;6.40;;
66856;SDS011;53766;50.280;19.160;2024-03-08T13:23:13;8.85;;;6.75;;
66856;SDS011;53766;50.280;19.160;2024-03-08T13:25:41;8.35;;;6.70;;
66856;SDS011;53766;50.280;19.160;2024-03-08T13:28:09;8.80;;;7.00;;
66856;SDS011;53766;50.280;19.160;2024-03-08T13:30:38;11.75;;;6.93;;
66856;SDS011;53766;50.280;19.160;2024-03-08T13:33:06;10.77;;;7.35;;
66856;SDS011;53766;50.280;19.160;2024-03-08T13:35:36;9.48;;;7.07;;
66856;SDS011;53766;50.280;19.160;2024-03-08T13:38:05;15.52;;;6.75;;
66856;SDS011;53766;50.280;19.160;2024-03-08T13:40:36;8.52;;;6.78;;
66856;SDS011;53766;50.280;19.160;2024-03-08T13:43:04;9.02;;;7.00;;
66856;SDS011;53766;50.280;19.160;2024-03-08T13:45:32;9.10;;;6.68;;
66856;SDS011;53766;50.280;19.160;2024-03-08T13:48:00;12.15;;;7.18;;
66856;SDS011;53766;50.280;19.160;2024-03-08T13:50:32;9.00;;;6.88;;
66856;SDS011;53766;50.280;19.160;2024-03-08T13:52:59;10.80;;;7.45;;
66856;SDS011;53766;50.280;19.160;2024-03-08T13:55:28;12.48;;;8.13;;
66856;SDS011;53766;50.280;19.160;2024-03-08T13:57:55;10.55;;;8.25;;
66856;SDS011;53766;50.280;19.160;2024-03-08T14:00:25;13.00;;;8.73;;
66856;SDS011;53766;50.280;19.160;2024-03-08T14:02:55;11.13;;;7.80;;
66856;SDS011;53766;50.280;19.160;2024-03-08T14:05:23;11.07;;;8.30;;
66856;SDS011;53766;50.280;19.160;2024-03-08T14:07:51;13.02;;;8.50;;
66856;SDS011;53766;50.280;19.160;2024-03-08T14:10:22;12.50;;;8.82;;
66856;SDS011;53766;50.280;19.160;2024-03-08T14:12:50;15.90;;;9.05;;
66856;SDS011;53766;50.280;19.160;2024-03-08T14:15:18;14.85;;;9.75;;
66856;SDS011;53766;50.280;19.160;2024-03-08T14:17:54;18.63;;;10.25;;
66856;SDS011;53766;50.280;19.160;2024-03-08T14:20:23;15.82;;;10.85;;
66856;SDS011;53766;50.280;19.160;2024-03-08T14:22:53;22.25;;;11.20;;
66856;SDS011;53766;50.280;19.160;2024-03-08T14:25:23;18.33;;;11.00;;
66856;SDS011;53766;50.280;19.160;2024-03-08T14:27:52;20.52;;;10.73;;
66856;SDS011;53766;50.280;19.160;2024-03-08T14:30:21;13.90;;;10.10;;
66856;SDS011;53766;50.280;19.160;2024-03-08T14:33:09;14.00;;;9.88;;
66856;SDS011;53766;50.280;19.160;2024-03-08T14:35:40;18.55;;;10.35;;
66856;SDS011;53766;50.280;19.160;2024-03-08T14:38:08;17.40;;;10.60;;
66856;SDS011;53766;50.280;19.160;2024-03-08T14:40:38;15.63;;;10.10;;
66856;SDS011;53766;50.280;19.160;2024-03-08T14:43:06;16.00;;;9.75;;